Time;durP1;ratioP1;P1;durP2;ratioP2;P2;SDS_P1;SDS_P2;PMS_P1;PMS_P2;Temp;Humidity;BMP_temperature;BMP_pressure;BME280_temperature;BME280_humidity;BME280_pressure;Samples;Min_cycle;Max_cycle;Signal;HPM_P1;HPM_P2
2022/11/28 00:01:16;;;;;;;4.75;2.13;;;;;;;17.84;59.75;99419.59;4988896;28;20105;-67
2022/11/28 00:03:41;;;;;;;4.53;2.20;;;;;;;17.83;59.83;99422.34;4986636;28;20077;-68
2022/11/28 00:06:07;;;;;;;5.40;2.38;;;;;;;17.83;59.93;99423.16;4988409;28;20030;-68
2022/11/28 00:08:33;;;;;;;5.18;2.33;;;;;;;17.84;59.85;99418.75;4988291;28;20061;-67
2022/11/28 00:11:08;;;;;;;5.03;2.75;;;;;;;17.82;59.80;99425.91;4990314;28;20026;-69
2022/11/28 00:13:35;;;;;;;4.13;2.30;;;;;;;17.83;60.14;99427.63;4987529;28;20022;-68
2022/11/28 00:16:02;;;;;;;4.85;2.42;;;;;;;17.83;59.87;99427.63;4987398;28;20025;-69
2022/11/28 00:18:28;;;;;;;5.18;2.83;;;;;;;17.83;59.99;99430.25;4993160;28;20073;-68
2022/11/28 00:21:02;;;;;;;3.30;1.92;;;;;;;17.83;59.73;99432.91;4993920;28;20430;-69
2022/11/28 00:23:29;;;;;;;4.60;1.83;;;;;;;17.83;59.73;99439.00;4987104;28;20141;-69
2022/11/28 00:26:16;;;;;;;4.03;2.30;;;;;;;17.82;59.92;99439.94;4994311;28;20038;-69
2022/11/28 00:28:42;;;;;;;7.05;2.60;;;;;;;17.81;60.06;99434.72;4994384;28;20034;-68
2022/11/28 00:31:12;;;;;;;4.95;2.50;;;;;;;17.81;59.88;99437.38;4992809;28;20034;-68
2022/11/28 00:33:38;;;;;;;3.92;1.98;;;;;;;17.82;59.92;99436.47;4991888;28;20089;-67
2022/11/28 00:36:04;;;;;;;6.55;2.40;;;;;;;17.79;59.97;99426.03;4986526;28;20094;-67
2022/11/28 00:38:30;;;;;;;3.85;2.35;;;;;;;17.80;59.65;99428.63;4994243;28;20030;-67
2022/11/28 00:41:08;;;;;;;4.63;2.42;;;;;;;17.79;59.68;99426.03;4988490;28;20566;-68
2022/11/28 00:43:34;;;;;;;6.43;2.63;;;;;;;17.78;59.74;99433.09;4994450;28;20498;-67
2022/11/28 00:46:00;;;;;;;4.55;2.28;;;;;;;17.77;59.71;99420.81;4989719;28;20557;-69
2022/11/28 00:48:25;;;;;;;5.05;2.85;;;;;;;17.76;59.65;99420.91;4994166;28;20061;-69
2022/11/28 00:50:51;;;;;;;5.20;2.60;;;;;;;17.75;59.90;99430.63;4992559;28;20109;-69
2022/11/28 00:53:17;;;;;;;4.88;2.30;;;;;;;17.77;59.96;99441.94;4992918;28;20101;-67
2022/11/28 00:55:43;;;;;;;4.22;2.15;;;;;;;17.77;59.75;99427.91;4993463;28;20069;-68
2022/11/28 00:58:08;;;;;;;5.35;2.50;;;;;;;17.76;60.03;99431.44;4991495;28;20019;-68
2022/11/28 01:00:34;;;;;;;5.05;2.70;;;;;;;17.74;59.85;99423.63;4993908;28;20069;-69
2022/11/28 01:02:59;;;;;;;4.93;2.22;;;;;;;17.72;59.87;99414.91;4993103;28;20133;-68
2022/11/28 01:05:25;;;;;;;5.82;2.90;;;;;;;17.74;59.80;99417.50;4994043;28;20049;-68
2022/11/28 01:07:50;;;;;;;5.50;2.40;;;;;;;17.73;59.95;99397.31;4994162;28;20399;-69
2022/11/28 01:10:16;;;;;;;4.43;2.72;;;;;;;17.73;59.72;99402.59;4988694;28;20150;-68
2022/11/28 01:12:42;;;;;;;4.88;2.60;;;;;;;17.75;60.08;99419.19;4994867;28;20022;-69
2022/11/28 01:15:10;;;;;;;4.25;2.47;;;;;;;17.74;59.78;99409.56;4994642;28;20034;-68
2022/11/28 01:17:35;;;;;;;3.83;2.50;;;;;;;17.73;59.75;99426.34;4993533;28;20094;-69
2022/11/28 01:20:03;;;;;;;4.97;2.67;;;;;;;17.73;59.80;99434.25;4993074;28;20687;-68
2022/11/28 01:22:28;;;;;;;5.72;2.50;;;;;;;17.73;60.14;99436.91;4991869;28;20038;-69
2022/11/28 01:24:54;;;;;;;5.82;2.53;;;;;;;17.73;60.01;99440.41;4991691;28;20043;-70
2022/11/28 01:27:19;;;;;;;6.82;2.83;;;;;;;17.67;60.03;99438.91;4992726;28;20402;-67
2022/11/28 01:29:44;;;;;;;4.25;2.20;;;;;;;17.71;60.05;99440.47;4993425;28;20050;-70
2022/11/28 01:32:10;;;;;;;4.30;2.40;;;;;;;17.70;60.09;99430.84;4993474;28;20521;-70
2022/11/28 01:34:35;;;;;;;5.05;2.63;;;;;;;17.71;60.07;99440.47;4992826;28;20036;-67
2022/11/28 01:37:01;;;;;;;4.75;2.55;;;;;;;17.70;59.82;99446.69;4992655;28;20022;-68
2022/11/28 01:39:26;;;;;;;5.55;2.75;;;;;;;17.71;59.65;99445.75;4991583;28;20019;-67
2022/11/28 01:41:52;;;;;;;5.28;2.58;;;;;;;17.67;59.92;99448.59;4990105;28;20098;-68
2022/11/28 01:44:17;;;;;;;6.40;2.75;;;;;;;17.71;59.91;99450.16;4991272;28;20034;-68
2022/11/28 01:46:43;;;;;;;4.63;2.35;;;;;;;17.70;59.88;99451.97;4991896;28;20026;-69
2022/11/28 01:49:16;;;;;;;5.05;2.55;;;;;;;17.70;59.95;99464.28;4992469;28;20023;-69
2022/11/28 01:51:47;;;;;;;4.95;2.65;;;;;;;17.69;59.61;99466.06;4992724;28;20022;-69
2022/11/28 01:54:15;;;;;;;5.75;2.70;;;;;;;17.70;59.62;99464.28;4990526;28;20034;-69
2022/11/28 01:56:50;;;;;;;5.03;2.80;;;;;;;17.68;59.80;99471.44;4991250;28;20026;-68
2022/11/28 01:59:17;;;;;;;5.45;2.50;;;;;;;17.70;59.71;99469.56;4992174;28;20104;-70
2022/11/28 02:01:44;;;;;;;4.72;2.65;;;;;;;17.70;59.82;99473.06;4991821;28;20026;-67
2022/11/28 02:04:12;;;;;;;5.00;2.35;;;;;;;17.67;59.87;99481.13;4992568;28;20035;-69
2022/11/28 02:06:38;;;;;;;4.95;2.45;;;;;;;17.66;59.69;99492.59;4991366;28;20021;-70
2022/11/28 02:09:09;;;;;;;4.32;2.38;;;;;;;17.65;59.96;99493.53;4990795;28;20495;-69
2022/11/28 02:11:47;;;;;;;4.95;2.53;;;;;;;17.65;59.79;99498.81;4991496;28;20030;-69
2022/11/28 02:14:33;;;;;;;5.05;2.85;;;;;;;17.67;59.96;99496.94;4990812;28;20038;-68
2022/11/28 02:17:09;;;;;;;4.65;2.85;;;;;;;17.67;60.08;99507.50;4990579;28;20160;-69
2022/11/28 02:20:31;;;;;;;4.22;2.42;;;;;;;17.66;59.78;99520.75;4986887;28;20030;-67
2022/11/28 02:23:08;;;;;;;5.15;2.60;;;;;;;17.65;60.00;99514.66;4930821;29;20575;-68
2022/11/28 02:25:48;;;;;;;4.28;2.78;;;;;;;17.65;59.92;99513.78;4930940;29;20071;-69
2022/11/28 02:28:32;;;;;;;4.53;2.80;;;;;;;17.64;59.71;99518.22;4931946;29;20575;-69
2022/11/28 02:30:57;;;;;;;4.32;2.40;;;;;;;17.64;59.96;99510.31;4930178;29;20060;-69
2022/11/28 02:33:34;;;;;;;6.25;3.00;;;;;;;17.65;59.92;99513.78;4930428;29;20092;-70
2022/11/28 02:36:02;;;;;;;5.10;2.67;;;;;;;17.63;60.03;99500.66;4928497;29;20073;-69
2022/11/28 02:38:46;;;;;;;4.45;2.45;;;;;;;17.61;60.12;99494.59;4930502;29;20111;-69
2022/11/28 02:41:32;;;;;;;4.32;2.53;;;;;;;17.62;60.12;99488.38;4929467;29;20052;-69
2022/11/28 02:44:32;;;;;;;4.88;2.33;;;;;;;17.64;59.92;99491.84;4929684;29;20519;-69
2022/11/28 02:47:10;;;;;;;4.22;2.38;;;;;;;17.62;59.76;99483.09;4930495;29;20155;-69
2022/11/28 02:49:46;;;;;;;4.68;2.47;;;;;;;17.62;59.95;99492.81;4931878;29;20496;-68
2022/11/28 02:52:17;;;;;;;5.38;2.60;;;;;;;17.64;59.79;99491.84;4931288;29;20103;-69
2022/11/28 02:54:43;;;;;;;5.03;2.70;;;;;;;17.61;60.05;99484.03;4991200;28;20049;-69
2022/11/28 02:57:09;;;;;;;4.40;2.30;;;;;;;17.61;59.96;99472.63;4991581;28;20081;-69
2022/11/28 02:59:38;;;;;;;5.43;2.90;;;;;;;17.62;59.76;99472.56;4989955;28;20367;-68
2022/11/28 03:02:31;;;;;;;4.55;2.20;;;;;;;17.58;59.98;99460.47;4992969;28;20046;-66
2022/11/28 03:05:17;;;;;;;4.82;2.22;;;;;;;17.61;60.05;99460.28;4986143;28;20041;-68
2022/11/28 03:08:22;;;;;;;4.38;2.28;;;;;;;17.61;59.81;99449.75;4991301;28;20026;-69
2022/11/28 03:11:14;;;;;;;4.78;2.47;;;;;;;17.59;60.12;99451.59;4993398;28;20066;-69
2022/11/28 03:14:00;;;;;;;4.35;2.55;;;;;;;17.57;59.85;99454.31;4989817;28;20022;-68
2022/11/28 03:16:29;;;;;;;5.32;2.60;;;;;;;17.60;60.11;99441.88;4990836;28;20105;-70
2022/11/28 03:19:00;;;;;;;5.10;2.78;;;;;;;17.56;59.78;99443.81;4990360;28;20490;-68
2022/11/28 03:21:42;;;;;;;3.22;2.22;;;;;;;17.58;60.13;99444.63;4990735;28;20033;-68
2022/11/28 03:24:26;;;;;;;3.83;2.22;;;;;;;17.59;59.83;99443.69;4990709;28;20076;-69
2022/11/28 03:27:01;;;;;;;4.22;2.50;;;;;;;17.58;60.08;99442.00;4989425;28;20022;-68
2022/11/28 03:29:36;;;;;;;3.60;2.10;;;;;;;17.60;59.71;99441.88;4988935;28;20046;-68
2022/11/28 03:32:12;;;;;;;5.78;2.55;;;;;;;17.57;59.87;99438.47;4990788;28;20069;-68
2022/11/28 03:34:43;;;;;;;3.55;1.90;;;;;;;17.58;59.69;99440.19;4989621;28;20084;-68
2022/11/28 03:37:18;;;;;;;5.03;2.17;;;;;;;17.58;59.94;99440.19;4990690;28;20034;-69
2022/11/28 03:39:50;;;;;;;3.95;2.00;;;;;;;17.58;59.84;99444.63;4992087;28;20077;-69
2022/11/28 03:42:23;;;;;;;5.18;2.33;;;;;;;17.57;59.85;99440.25;4989561;28;20068;-69
2022/11/28 03:44:57;;;;;;;3.95;2.15;;;;;;;17.58;59.59;99434.91;4989463;28;20034;-69
2022/11/28 03:47:33;;;;;;;5.28;2.13;;;;;;;17.58;59.69;99434.06;4989756;28;20506;-69
2022/11/28 03:50:04;;;;;;;5.30;2.30;;;;;;;17.59;59.88;99430.50;4991244;28;20069;-67
2022/11/28 03:52:40;;;;;;;4.35;2.17;;;;;;;17.55;59.71;99434.19;4989809;28;20380;-68
2022/11/28 03:55:12;;;;;;;3.20;1.80;;;;;;;17.56;59.73;99433.25;4988190;28;20033;-68
2022/11/28 03:57:48;;;;;;;5.40;2.40;;;;;;;17.52;59.77;99429.91;4988610;28;20026;-68
2022/11/28 04:00:14;;;;;;;2.80;1.70;;;;;;;17.55;59.85;99419.25;4990449;28;20018;-68
2022/11/28 04:02:58;;;;;;;3.92;2.00;;;;;;;17.54;59.82;99427.22;4989936;28;20494;-69
2022/11/28 04:05:46;;;;;;;3.53;1.90;;;;;;;17.56;59.68;99425.34;4988643;28;20033;-68
2022/11/28 04:08:11;;;;;;;3.30;1.67;;;;;;;17.54;59.98;99421.94;4988983;28;20045;-68
2022/11/28 04:10:48;;;;;;;3.45;1.60;;;;;;;17.54;59.98;99421.94;4988919;28;20034;-68
2022/11/28 04:13:25;;;;;;;4.07;2.25;;;;;;;17.54;59.98;99428.06;4988590;28;20031;-68
2022/11/28 04:16:12;;;;;;;3.67;1.92;;;;;;;17.52;59.70;99429.91;4985993;28;20161;-70
2022/11/28 04:19:15;;;;;;;3.40;1.83;;;;;;;17.55;59.82;99434.19;4987611;28;20065;-68
2022/11/28 04:21:48;;;;;;;4.32;1.75;;;;;;;17.51;59.79;99428.22;4980633;28;20062;-69
2022/11/28 04:24:19;;;;;;;3.17;1.90;;;;;;;17.50;60.03;99431.78;4988528;28;20058;-69
2022/11/28 04:26:54;;;;;;;3.75;2.00;;;;;;;17.49;59.95;99431.84;4989005;28;20030;-68
2022/11/28 04:29:22;;;;;;;3.50;2.00;;;;;;;17.50;59.98;99442.34;4988227;28;20033;-71
2022/11/28 04:31:52;;;;;;;3.42;1.60;;;;;;;17.53;60.13;99428.97;4989305;28;20050;-69
2022/11/28 04:34:20;;;;;;;3.72;1.70;;;;;;;17.53;59.69;99428.16;4990658;28;20031;-70
2022/11/28 04:36:48;;;;;;;2.85;1.60;;;;;;;17.52;59.98;99423.78;4990203;28;20089;-69
2022/11/28 04:39:18;;;;;;;3.15;1.40;;;;;;;17.52;59.74;99426.41;4990304;28;20402;-69
2022/11/28 04:42:11;;;;;;;4.10;1.98;;;;;;;17.50;60.05;99415.09;4987662;28;20031;-69
2022/11/28 04:44:52;;;;;;;4.03;2.00;;;;;;;17.48;60.20;99416.94;4988982;28;20026;-68
2022/11/28 04:47:18;;;;;;;3.92;1.70;;;;;;;17.49;60.21;99419.53;4989194;28;20529;-69
2022/11/28 04:49:43;;;;;;;4.38;1.75;;;;;;;17.50;59.88;99421.22;4989271;28;20038;-68
2022/11/28 04:52:18;;;;;;;3.28;1.70;;;;;;;17.52;60.05;99415.84;4988248;28;20034;-69
2022/11/28 04:54:46;;;;;;;3.13;1.77;;;;;;;17.52;60.04;99423.78;4988352;28;20038;-69
2022/11/28 04:57:36;;;;;;;3.47;1.58;;;;;;;17.52;59.86;99423.78;4988421;28;20026;-67
2022/11/28 05:00:05;;;;;;;3.42;1.60;;;;;;;17.50;59.96;99425.63;4988097;28;20687;-69
2022/11/28 05:02:32;;;;;;;3.47;1.67;;;;;;;17.49;59.91;99429.22;4988650;28;20033;-69
2022/11/28 05:04:58;;;;;;;3.33;1.52;;;;;;;17.51;60.07;99424.72;4990945;28;20030;-69
2022/11/28 05:07:24;;;;;;;2.88;1.60;;;;;;;17.51;59.85;99422.06;4993529;28;20081;-69
2022/11/28 05:09:49;;;;;;;2.72;1.50;;;;;;;17.51;60.04;99416.78;4992430;28;20449;-68
2022/11/28 05:12:15;;;;;;;3.35;1.83;;;;;;;17.49;59.84;99423.94;4994330;28;20044;-69
2022/11/28 05:14:40;;;;;;;2.95;1.50;;;;;;;17.52;59.81;99423.78;4993218;28;20027;-68
2022/11/28 05:17:06;;;;;;;2.47;1.50;;;;;;;17.51;59.83;99424.72;4992485;28;20039;-68
2022/11/28 05:19:32;;;;;;;2.88;1.60;;;;;;;17.50;59.80;99430.91;4991594;28;20022;-69
2022/11/28 05:21:58;;;;;;;2.78;1.75;;;;;;;17.52;59.91;99439.59;4993174;28;20050;-68
2022/11/28 05:24:23;;;;;;;3.60;1.52;;;;;;;17.53;59.94;99438.69;4989439;28;20414;-66
2022/11/28 05:26:49;;;;;;;3.05;1.60;;;;;;;17.51;59.99;99437.91;4992220;28;20026;-67
2022/11/28 05:29:14;;;;;;;2.78;1.55;;;;;;;17.48;60.13;99438.06;4993480;28;20027;-69
2022/11/28 05:31:40;;;;;;;3.33;1.80;;;;;;;17.50;59.83;99436.19;4992768;28;20034;-67
2022/11/28 05:34:05;;;;;;;2.65;1.40;;;;;;;17.50;60.03;99438.84;4992214;28;20031;-69
2022/11/28 05:36:31;;;;;;;2.83;1.60;;;;;;;17.50;60.05;99434.41;4992144;28;20546;-68
2022/11/28 05:38:56;;;;;;;2.38;1.50;;;;;;;17.49;59.87;99440.63;4991065;28;20109;-67
2022/11/28 05:41:27;;;;;;;3.13;1.40;;;;;;;17.50;60.11;99441.47;4991959;28;20386;-68
2022/11/28 05:43:55;;;;;;;2.50;1.38;;;;;;;17.50;59.79;99444.09;4991495;28;20081;-67
2022/11/28 05:46:21;;;;;;;1.92;1.17;;;;;;;17.50;60.13;99436.19;4987975;28;20031;-68
2022/11/28 05:48:47;;;;;;;2.95;1.52;;;;;;;17.50;60.06;99441.47;4990858;28;20096;-67
2022/11/28 05:51:13;;;;;;;1.98;1.30;;;;;;;17.47;60.00;99437.19;4991804;28;20130;-67
2022/11/28 05:53:38;;;;;;;2.95;1.25;;;;;;;17.47;60.26;99433.72;4991592;28;20041;-68
2022/11/28 05:56:15;;;;;;;1.90;1.20;;;;;;;17.50;59.86;99437.06;4993024;28;20632;-68
2022/11/28 05:58:41;;;;;;;3.08;1.30;;;;;;;17.49;60.08;99443.28;4991764;28;20025;-66
2022/11/28 06:01:10;;;;;;;2.60;1.25;;;;;;;17.49;60.06;99440.63;4992641;28;20129;-68
2022/11/28 06:03:35;;;;;;;2.65;1.30;;;;;;;17.50;60.17;99442.34;4991791;28;20041;-68
2022/11/28 06:06:01;;;;;;;2.95;1.48;;;;;;;17.49;60.28;99445.91;4992482;28;20112;-67
2022/11/28 06:08:26;;;;;;;2.50;1.38;;;;;;;17.47;60.28;99444.28;4992289;28;20112;-68
2022/11/28 06:10:56;;;;;;;4.32;1.38;;;;;;;17.49;60.34;99442.41;4991526;28;20026;-67
2022/11/28 06:13:21;;;;;;;8.15;1.77;;;;;;;17.47;60.35;99437.19;4993211;28;20106;-70
2022/11/28 06:15:47;;;;;;;5.55;2.10;;;;;;;17.53;60.53;99447.44;4990989;28;20124;-68
2022/11/28 06:18:12;;;;;;;6.07;2.15;;;;;;;17.54;61.22;99443.88;4990227;28;20026;-68
2022/11/28 06:20:38;;;;;;;11.02;2.95;;;;;;;17.54;62.96;99451.81;4990800;28;20027;-67
2022/11/28 06:23:03;;;;;;;11.40;3.17;;;;;;;17.58;63.39;99449.91;4988478;28;20551;-67
2022/11/28 06:25:28;;;;;;;11.48;3.40;;;;;;;17.58;63.70;99461.28;4987909;28;20045;-67
2022/11/28 06:27:54;;;;;;;10.88;3.53;;;;;;;17.60;64.25;99458.59;4990413;28;20053;-67
2022/11/28 06:30:19;;;;;;;8.90;3.00;;;;;;;17.62;63.71;99462.00;4987642;28;20345;-69
2022/11/28 06:32:44;;;;;;;11.45;3.22;;;;;;;17.62;64.08;99466.44;4993717;28;20035;-69
2022/11/28 06:35:10;;;;;;;12.93;3.42;;;;;;;17.62;64.10;99472.56;4992878;28;20039;-67
2022/11/28 06:37:35;;;;;;;10.68;2.85;;;;;;;17.61;64.08;99469.97;4985830;28;20546;-68
2022/11/28 06:40:01;;;;;;;9.98;3.28;;;;;;;17.61;63.96;99481.41;4978465;28;20023;-68
2022/11/28 06:42:26;;;;;;;8.50;3.08;;;;;;;17.62;63.96;99483.09;4984952;28;20025;-68
2022/11/28 06:44:52;;;;;;;8.07;2.78;;;;;;;17.61;64.10;99491.97;4986638;28;20038;-69
2022/11/28 06:47:17;;;;;;;12.63;2.63;;;;;;;17.63;63.78;99483.97;4986765;28;20502;-70
2022/11/28 06:49:42;;;;;;;6.65;2.15;;;;;;;17.64;63.64;99486.56;4985846;28;20034;-69
2022/11/28 06:52:08;;;;;;;7.80;2.75;;;;;;;17.64;63.65;99485.69;4990532;28;20445;-69
2022/11/28 06:54:33;;;;;;;8.50;2.60;;;;;;;17.63;63.36;99483.97;4988559;28;20823;-68
2022/11/28 06:56:59;;;;;;;7.43;2.30;;;;;;;17.63;63.09;99473.44;4992029;28;20023;-68
2022/11/28 06:59:24;;;;;;;6.28;2.30;;;;;;;17.64;63.32;99475.13;4994468;28;20018;-69
2022/11/28 07:01:49;;;;;;;8.30;2.38;;;;;;;17.64;62.79;99460.16;4994198;28;20026;-68
2022/11/28 07:04:15;;;;;;;8.07;2.78;;;;;;;17.61;63.06;99468.22;4993747;28;20507;-68
2022/11/28 07:06:42;;;;;;;7.63;2.50;;;;;;;17.64;63.00;99467.22;4994310;28;20034;-68
2022/11/28 07:09:08;;;;;;;5.80;2.20;;;;;;;17.63;62.96;99471.63;4994220;28;20450;-68
2022/11/28 07:11:33;;;;;;;10.50;2.25;;;;;;;17.61;62.96;99470.84;4994068;28;20183;-68
2022/11/28 07:14:01;;;;;;;7.40;2.28;;;;;;;17.58;62.92;99477.13;4993993;28;20037;-69
2022/11/28 07:16:29;;;;;;;8.77;2.55;;;;;;;17.60;62.54;99470.91;4994081;28;20018;-69
2022/11/28 07:18:55;;;;;;;6.53;2.08;;;;;;;17.59;62.59;99478.00;4993862;28;20029;-69
2022/11/28 07:21:21;;;;;;;6.18;2.22;;;;;;;17.60;62.33;99471.78;4993986;28;20069;-69
2022/11/28 07:23:47;;;;;;;6.82;2.20;;;;;;;17.58;62.49;99481.56;4993642;28;20050;-68
2022/11/28 07:26:16;;;;;;;6.97;2.50;;;;;;;17.58;62.20;99484.19;4993486;28;20434;-69
2022/11/28 07:28:42;;;;;;;5.00;2.20;;;;;;;17.55;62.12;99486.97;4993837;28;20494;-69
2022/11/28 07:31:10;;;;;;;7.20;1.90;;;;;;;17.56;62.19;99480.75;4993900;28;20019;-68
2022/11/28 07:33:37;;;;;;;6.53;2.08;;;;;;;17.52;62.02;99487.97;4993499;28;20068;-68
2022/11/28 07:36:04;;;;;;;7.55;2.45;;;;;;;17.51;62.24;99483.63;4993839;28;20121;-68
2022/11/28 07:38:30;;;;;;;11.85;2.63;;;;;;;17.51;62.10;99486.25;4993751;28;20026;-68
2022/11/28 07:41:02;;;;;;;5.85;2.08;;;;;;;17.51;61.71;99490.66;4993642;28;20032;-69
2022/11/28 07:43:27;;;;;;;8.25;2.75;;;;;;;17.52;61.73;99492.38;4993751;28;20030;-68
2022/11/28 07:45:52;;;;;;;5.45;1.77;;;;;;;17.52;61.67;99500.28;4993531;28;20088;-69
2022/11/28 07:48:18;;;;;;;4.97;2.10;;;;;;;17.51;61.82;99501.22;4993302;28;20053;-69
2022/11/28 07:50:43;;;;;;;5.72;2.30;;;;;;;17.49;61.44;99505.72;4993516;28;20430;-68
2022/11/28 07:53:09;;;;;;;6.38;2.25;;;;;;;17.47;61.58;99510.22;4993319;28;20061;-68
2022/11/28 07:55:35;;;;;;;4.60;1.40;;;;;;;17.48;61.69;99504.00;4993567;28;20105;-68
2022/11/28 07:58:01;;;;;;;6.82;2.10;;;;;;;17.50;61.45;99515.34;4993422;28;20026;-68
2022/11/28 08:00:26;;;;;;;4.53;1.95;;;;;;;17.47;61.32;99515.50;4993394;28;20532;-69
2022/11/28 08:02:52;;;;;;;4.50;1.90;;;;;;;17.47;61.24;99531.31;4993149;28;20030;-69
2022/11/28 08:05:17;;;;;;;5.38;1.83;;;;;;;17.45;61.59;99519.03;4993262;28;20066;-68
2022/11/28 08:07:43;;;;;;;4.75;1.65;;;;;;;17.45;61.43;99519.03;4993426;28;20031;-68
2022/11/28 08:10:08;;;;;;;4.47;1.60;;;;;;;17.44;61.45;99533.16;4992164;28;20023;-69
2022/11/28 08:12:33;;;;;;;5.60;1.77;;;;;;;17.45;61.02;99531.38;4993282;28;20046;-68
2022/11/28 08:14:59;;;;;;;4.40;1.80;;;;;;;17.42;61.09;99524.47;4993265;28;20050;-68
2022/11/28 08:17:24;;;;;;;5.93;1.50;;;;;;;17.42;61.04;99521.81;4992947;28;20026;-68
2022/11/28 08:19:50;;;;;;;4.68;1.55;;;;;;;17.42;61.20;99529.75;4993296;28;20096;-68
2022/11/28 08:22:15;;;;;;;3.85;1.63;;;;;;;17.42;61.23;99529.75;4992802;28;20049;-67
2022/11/28 08:24:40;;;;;;;4.97;1.70;;;;;;;17.42;61.27;99529.75;4992952;28;20137;-69
2022/11/28 08:27:06;;;;;;;3.13;1.63;;;;;;;17.41;61.19;99533.31;4993026;28;20084;-68
2022/11/28 08:29:31;;;;;;;5.85;2.00;;;;;;;17.40;61.22;99525.47;4991937;28;20049;-69
2022/11/28 08:31:57;;;;;;;4.65;1.83;;;;;;;17.38;61.13;99524.69;4992772;28;20395;-68
2022/11/28 08:34:22;;;;;;;2.90;1.23;;;;;;;17.39;61.24;99524.59;4993005;28;20031;-68
2022/11/28 08:36:49;;;;;;;3.78;1.30;;;;;;;17.38;60.97;99522.03;4991914;28;20026;-68
2022/11/28 08:39:14;;;;;;;5.50;1.40;;;;;;;17.36;61.10;99521.22;4995623;28;20437;-67
2022/11/28 08:41:40;;;;;;;3.33;1.40;;;;;;;17.35;60.89;99511.63;4996959;28;20030;-67
2022/11/28 08:44:05;;;;;;;5.47;1.70;;;;;;;17.33;60.97;99508.19;4996956;28;20093;-67
2022/11/28 08:46:31;;;;;;;4.55;1.70;;;;;;;17.33;61.21;99508.19;4996584;28;20038;-68
2022/11/28 08:48:58;;;;;;;2.75;1.30;;;;;;;17.35;61.11;99525.66;4996813;28;20034;-68
2022/11/28 08:51:24;;;;;;;3.80;1.58;;;;;;;17.35;60.82;99517.75;4996818;28;20033;-69
2022/11/28 08:53:50;;;;;;;2.65;1.35;;;;;;;17.34;60.75;99516.03;4996688;28;20387;-68
2022/11/28 08:56:16;;;;;;;3.45;1.25;;;;;;;17.34;60.81;99521.28;4996806;28;20367;-68
2022/11/28 08:58:41;;;;;;;3.10;1.20;;;;;;;17.33;61.04;99519.59;4996736;28;20041;-67
2022/11/28 09:01:19;;;;;;;2.55;0.93;;;;;;;17.34;60.76;99534.47;4995819;28;20027;-68
2022/11/28 09:03:45;;;;;;;4.15;1.23;;;;;;;17.34;60.63;99537.13;4996503;28;20439;-68
2022/11/28 09:06:11;;;;;;;4.43;1.50;;;;;;;17.33;60.98;99532.78;4996478;28;20482;-69
2022/11/28 09:08:36;;;;;;;3.38;1.23;;;;;;;17.31;60.80;99526.72;4996656;28;20058;-69
2022/11/28 09:11:02;;;;;;;3.80;1.40;;;;;;;17.31;61.00;99537.28;4996424;28;20037;-68
2022/11/28 09:13:27;;;;;;;2.78;1.05;;;;;;;17.29;61.02;99529.41;4996470;28;20041;-69
2022/11/28 09:15:53;;;;;;;3.90;1.50;;;;;;;17.31;60.91;99534.63;4996001;28;20034;-68
2022/11/28 09:18:19;;;;;;;3.53;1.27;;;;;;;17.30;60.89;99535.56;4996371;28;20080;-69
2022/11/28 09:20:44;;;;;;;3.25;1.30;;;;;;;17.30;60.79;99540.84;4996241;28;20026;-69
2022/11/28 09:23:09;;;;;;;4.25;1.17;;;;;;;17.31;60.83;99537.28;4994802;28;20537;-68
2022/11/28 09:25:36;;;;;;;4.38;1.38;;;;;;;17.30;60.79;99546.13;4996147;28;20073;-69
2022/11/28 09:28:02;;;;;;;3.30;1.45;;;;;;;17.29;60.53;99549.69;4996027;28;20415;-68
2022/11/28 09:30:28;;;;;;;4.35;1.40;;;;;;;17.28;60.45;99535.63;4995656;28;20027;-69
2022/11/28 09:32:53;;;;;;;2.60;1.15;;;;;;;17.28;60.32;99540.91;4996117;28;20019;-68
2022/11/28 09:35:18;;;;;;;3.65;1.17;;;;;;;17.26;60.67;99539.25;4995962;28;20030;-67
2022/11/28 09:37:44;;;;;;;3.97;1.35;;;;;;;17.27;60.76;99546.22;4995944;28;20026;-69
2022/11/28 09:40:27;;;;;;;1.65;0.85;;;;;;;17.25;60.77;99548.94;4996017;28;20029;-68
2022/11/28 09:42:52;;;;;;;3.08;1.30;;;;;;;17.27;60.47;99546.22;4995919;28;20054;-68
2022/11/28 09:45:21;;;;;;;3.80;1.33;;;;;;;17.25;60.57;99551.56;4995417;28;20061;-69
2022/11/28 09:47:53;;;;;;;2.90;0.90;;;;;;;17.27;60.40;99562.94;4995812;28;20030;-68
2022/11/28 09:50:30;;;;;;;3.28;1.20;;;;;;;17.23;60.62;99550.78;4995259;28;20026;-68
2022/11/28 09:53:17;;;;;;;2.72;0.95;;;;;;;17.23;60.56;99555.22;4995671;28;20422;-66
2022/11/28 09:55:50;;;;;;;2.10;0.90;;;;;;;17.23;60.74;99555.22;4994439;28;20394;-69
2022/11/28 09:58:28;;;;;;;3.50;1.38;;;;;;;17.21;60.75;99557.91;4995317;28;20061;-69
2022/11/28 10:01:16;;;;;;;2.35;1.05;;;;;;;17.22;60.34;99559.63;4995582;28;20019;-69
2022/11/28 10:03:50;;;;;;;2.75;0.90;;;;;;;17.23;60.55;99556.06;4995444;28;20026;-68
2022/11/28 10:06:34;;;;;;;2.67;1.20;;;;;;;17.23;60.41;99571.88;4995428;28;20034;-69
2022/11/28 10:09:21;;;;;;;3.97;1.40;;;;;;;17.23;60.51;99568.41;4995470;28;20089;-69
2022/11/28 10:12:00;;;;;;;2.58;0.90;;;;;;;17.24;60.33;99570.13;4995301;28;20022;-68
2022/11/28 10:14:55;;;;;;;4.00;1.50;;;;;;;17.23;60.76;99568.41;4995096;28;20045;-69
2022/11/28 10:17:35;;;;;;;3.65;1.00;;;;;;;17.21;60.72;99572.88;4994974;28;20088;-68
2022/11/28 10:20:13;;;;;;;4.15;1.10;;;;;;;17.20;60.44;99571.16;4975860;28;20424;-68
2022/11/28 10:22:54;;;;;;;1.65;0.88;;;;;;;17.23;60.71;99565.78;4975802;28;20043;-68
2022/11/28 10:25:23;;;;;;;3.65;1.10;;;;;;;17.21;60.70;99562.31;4975773;28;20053;-68
2022/11/28 10:27:49;;;;;;;3.28;0.90;;;;;;;17.18;60.50;99569.47;4986648;28;20549;-69
2022/11/28 10:30:21;;;;;;;3.50;1.10;;;;;;;17.18;60.60;99565.94;4995075;28;20038;-69
2022/11/28 10:33:15;;;;;;;2.78;1.00;;;;;;;17.20;60.69;99560.63;4995036;28;20367;-69
2022/11/28 10:35:49;;;;;;;2.47;1.00;;;;;;;17.20;60.44;99565.91;4994937;28;20057;-69
2022/11/28 10:38:15;;;;;;;3.42;1.30;;;;;;;17.20;60.67;99560.63;4995000;28;20023;-68
2022/11/28 10:40:53;;;;;;;2.45;1.00;;;;;;;17.21;60.52;99562.31;4994799;28;20018;-68
2022/11/28 10:43:38;;;;;;;3.10;1.00;;;;;;;17.20;60.53;99563.25;4994420;28;20502;-69
2022/11/28 10:46:21;;;;;;;2.47;0.90;;;;;;;17.20;60.40;99560.63;4994728;28;20046;-68
2022/11/28 10:49:24;;;;;;;4.10;0.98;;;;;;;17.21;60.44;99557.06;4994718;28;20031;-69
2022/11/28 10:52:12;;;;;;;2.40;1.05;;;;;;;17.18;60.41;99548.38;4993267;28;20026;-68
2022/11/28 10:55:06;;;;;;;4.72;1.17;;;;;;;17.18;60.49;99547.50;4994567;28;20116;-68
2022/11/28 10:57:42;;;;;;;3.83;0.80;;;;;;;17.19;60.59;99554.47;4993082;28;20429;-67
2022/11/28 11:00:11;;;;;;;;;;;;;;;17.19;60.47;99559.75;4994746;28;20027;-67
2022/11/28 11:02:36;;;;;;;2.20;0.95;;;;;;;17.17;60.21;99546.66;4993757;28;19913;-67
2022/11/28 11:05:03;;;;;;;2.60;1.05;;;;;;;17.17;60.27;99554.56;4993637;28;20060;-69
2022/11/28 11:07:31;;;;;;;3.65;1.10;;;;;;;17.17;60.39;99549.28;4994508;28;20027;-68
2022/11/28 11:10:11;;;;;;;2.38;1.27;;;;;;;17.18;60.17;99540.44;4994207;28;20509;-69
2022/11/28 11:12:37;;;;;;;2.88;1.10;;;;;;;17.17;60.34;99549.28;4993784;28;20026;-69
2022/11/28 11:15:28;;;;;;;2.70;0.75;;;;;;;17.21;60.44;99551.78;4994169;28;20052;-69
2022/11/28 11:17:54;;;;;;;3.53;1.20;;;;;;;17.18;60.53;99548.38;4994126;28;20125;-69
2022/11/28 11:20:33;;;;;;;3.78;1.35;;;;;;;17.16;60.14;99549.34;4994066;28;20462;-69
2022/11/28 11:23:12;;;;;;;3.80;1.08;;;;;;;17.15;60.42;99547.66;4992608;28;20723;-69
2022/11/28 11:25:46;;;;;;;1.77;0.82;;;;;;;17.17;60.21;99541.38;4993542;28;20030;-67
2022/11/28 11:28:26;;;;;;;2.25;0.65;;;;;;;17.16;60.54;99529.09;4993823;28;20090;-68
2022/11/28 11:31:04;;;;;;;2.28;1.08;;;;;;;17.17;60.27;99536.09;4993973;28;20030;-68
2022/11/28 11:33:34;;;;;;;4.97;1.20;;;;;;;17.18;60.19;99532.53;4993881;28;20061;-68
2022/11/28 11:36:02;;;;;;;2.20;0.90;;;;;;;17.18;60.33;99532.53;4992605;28;20029;-68
2022/11/28 11:38:31;;;;;;;3.78;1.15;;;;;;;17.16;60.18;99534.38;4993890;28;20128;-68
2022/11/28 11:40:57;;;;;;;4.10;1.10;;;;;;;17.17;60.49;99529.97;4993388;28;20331;-69
2022/11/28 11:43:25;;;;;;;2.83;0.80;;;;;;;17.17;60.27;99525.56;4993727;28;20040;-69
2022/11/28 11:46:07;;;;;;;2.42;0.80;;;;;;;17.17;60.42;99522.94;4993551;28;20069;-69
2022/11/28 11:48:44;;;;;;;3.03;0.90;;;;;;;17.17;60.24;99520.28;4993651;28;20073;-68
2022/11/28 11:51:21;;;;;;;3.00;0.90;;;;;;;17.17;60.42;99525.56;4993530;28;20041;-68